sensor_id;sensor_type;location;lat;lon;timestamp;P1;durP1;ratioP1;P2;durP2;ratioP2
11490;SDS011;5802;52.832;4.758;2023-03-01T00:00:48;1.48;;;1.20;;
11490;SDS011;5802;52.832;4.758;2023-03-01T00:03:16;1.60;;;1.17;;
11490;SDS011;5802;52.832;4.758;2023-03-01T00:05:44;0.95;;;0.88;;
11490;SDS011;5802;52.832;4.758;2023-03-01T00:08:11;1.02;;;0.93;;
11490;SDS011;5802;52.832;4.758;2023-03-01T00:10:38;1.60;;;1.10;;
11490;SDS011;5802;52.832;4.758;2023-03-01T00:13:04;1.77;;;1.23;;
11490;SDS011;5802;52.832;4.758;2023-03-01T00:15:31;1.15;;;1.05;;
11490;SDS011;5802;52.832;4.758;2023-03-01T00:17:59;1.10;;;0.90;;
11490;SDS011;5802;52.832;4.758;2023-03-01T00:20:27;1.90;;;1.10;;
11490;SDS011;5802;52.832;4.758;2023-03-01T00:22:54;1.30;;;1.20;;
11490;SDS011;5802;52.832;4.758;2023-03-01T00:25:21;1.60;;;1.08;;
11490;SDS011;5802;52.832;4.758;2023-03-01T00:27:47;1.38;;;1.23;;
11490;SDS011;5802;52.832;4.758;2023-03-01T00:30:14;1.35;;;1.10;;
11490;SDS011;5802;52.832;4.758;2023-03-01T00:32:41;1.10;;;1.00;;
11490;SDS011;5802;52.832;4.758;2023-03-01T00:35:08;1.10;;;1.00;;
11490;SDS011;5802;52.832;4.758;2023-03-01T00:37:36;1.13;;;1.02;;
11490;SDS011;5802;52.832;4.758;2023-03-01T00:40:03;1.23;;;1.10;;
11490;SDS011;5802;52.832;4.758;2023-03-01T00:42:31;1.33;;;0.90;;
11490;SDS011;5802;52.832;4.758;2023-03-01T00:44:57;1.38;;;1.00;;
11490;SDS011;5802;52.832;4.758;2023-03-01T00:47:24;1.38;;;1.20;;
11490;SDS011;5802;52.832;4.758;2023-03-01T00:49:51;1.15;;;0.80;;
11490;SDS011;5802;52.832;4.758;2023-03-01T00:52:17;1.80;;;1.10;;
11490;SDS011;5802;52.832;4.758;2023-03-01T00:54:45;1.23;;;0.98;;
11490;SDS011;5802;52.832;4.758;2023-03-01T00:57:12;1.60;;;1.25;;
11490;SDS011;5802;52.832;4.758;2023-03-01T00:59:39;1.40;;;1.00;;
11490;SDS011;5802;52.832;4.758;2023-03-01T01:02:05;2.65;;;0.90;;
11490;SDS011;5802;52.832;4.758;2023-03-01T01:04:32;1.40;;;0.90;;
11490;SDS011;5802;52.832;4.758;2023-03-01T01:06:58;3.28;;;1.00;;
11490;SDS011;5802;52.832;4.758;2023-03-01T01:09:25;1.20;;;0.90;;
11490;SDS011;5802;52.832;4.758;2023-03-01T01:11:53;2.60;;;1.23;;
11490;SDS011;5802;52.832;4.758;2023-03-01T01:14:20;1.13;;;0.90;;
11490;SDS011;5802;52.832;4.758;2023-03-01T01:16:47;1.05;;;0.80;;
11490;SDS011;5802;52.832;4.758;2023-03-01T01:19:14;1.17;;;1.00;;
11490;SDS011;5802;52.832;4.758;2023-03-01T01:21:41;1.25;;;1.00;;
11490;SDS011;5802;52.832;4.758;2023-03-01T01:24:08;1.15;;;1.00;;
11490;SDS011;5802;52.832;4.758;2023-03-01T01:26:35;1.83;;;1.13;;
11490;SDS011;5802;52.832;4.758;2023-03-01T01:29:03;1.50;;;1.00;;
11490;SDS011;5802;52.832;4.758;2023-03-01T01:31:31;1.60;;;0.98;;
11490;SDS011;5802;52.832;4.758;2023-03-01T01:33:59;1.55;;;1.10;;
11490;SDS011;5802;52.832;4.758;2023-03-01T01:36:26;1.30;;;0.90;;
11490;SDS011;5802;52.832;4.758;2023-03-01T01:38:53;1.35;;;1.10;;
11490;SDS011;5802;52.832;4.758;2023-03-01T01:41:20;1.35;;;1.10;;
11490;SDS011;5802;52.832;4.758;2023-03-01T01:43:48;1.30;;;0.90;;
11490;SDS011;5802;52.832;4.758;2023-03-01T01:46:37;1.98;;;0.95;;
11490;SDS011;5802;52.832;4.758;2023-03-01T01:49:05;1.15;;;1.00;;
11490;SDS011;5802;52.832;4.758;2023-03-01T01:51:40;0.90;;;0.80;;
11490;SDS011;5802;52.832;4.758;2023-03-01T01:54:11;1.38;;;1.00;;
11490;SDS011;5802;52.832;4.758;2023-03-01T01:56:40;1.17;;;0.95;;
11490;SDS011;5802;52.832;4.758;2023-03-01T01:59:12;1.10;;;1.00;;
11490;SDS011;5802;52.832;4.758;2023-03-01T02:01:42;3.40;;;0.90;;
11490;SDS011;5802;52.832;4.758;2023-03-01T02:04:09;2.05;;;1.10;;
11490;SDS011;5802;52.832;4.758;2023-03-01T02:06:36;2.08;;;0.95;;
11490;SDS011;5802;52.832;4.758;2023-03-01T02:09:08;1.33;;;1.00;;
11490;SDS011;5802;52.832;4.758;2023-03-01T02:11:39;1.50;;;1.00;;
11490;SDS011;5802;52.832;4.758;2023-03-01T02:14:06;3.67;;;1.00;;
11490;SDS011;5802;52.832;4.758;2023-03-01T02:16:33;1.00;;;0.90;;
11490;SDS011;5802;52.832;4.758;2023-03-01T02:19:02;3.35;;;1.10;;
11490;SDS011;5802;52.832;4.758;2023-03-01T02:21:34;1.13;;;1.02;;
11490;SDS011;5802;52.832;4.758;2023-03-01T02:24:10;1.65;;;1.08;;
11490;SDS011;5802;52.832;4.758;2023-03-01T02:26:50;1.98;;;0.70;;
11490;SDS011;5802;52.832;4.758;2023-03-01T02:29:21;1.13;;;1.02;;
11490;SDS011;5802;52.832;4.758;2023-03-01T02:31:48;2.13;;;1.10;;
11490;SDS011;5802;52.832;4.758;2023-03-01T02:34:17;1.15;;;0.90;;
11490;SDS011;5802;52.832;4.758;2023-03-01T02:36:46;0.90;;;0.77;;
11490;SDS011;5802;52.832;4.758;2023-03-01T02:39:16;1.92;;;1.00;;
11490;SDS011;5802;52.832;4.758;2023-03-01T02:41:58;1.70;;;0.75;;
11490;SDS011;5802;52.832;4.758;2023-03-01T02:44:28;1.23;;;0.90;;
11490;SDS011;5802;52.832;4.758;2023-03-01T02:46:55;1.50;;;0.90;;
11490;SDS011;5802;52.832;4.758;2023-03-01T02:49:24;2.25;;;0.98;;
11490;SDS011;5802;52.832;4.758;2023-03-01T02:52:08;0.70;;;0.70;;
11490;SDS011;5802;52.832;4.758;2023-03-01T02:54:54;1.42;;;0.88;;
11490;SDS011;5802;52.832;4.758;2023-03-01T02:57:24;0.80;;;0.80;;
11490;SDS011;5802;52.832;4.758;2023-03-01T02:59:53;1.10;;;1.00;;
11490;SDS011;5802;52.832;4.758;2023-03-01T03:02:32;0.88;;;0.80;;
11490;SDS011;5802;52.832;4.758;2023-03-01T03:05:03;1.60;;;0.82;;
11490;SDS011;5802;52.832;4.758;2023-03-01T03:07:33;1.20;;;0.77;;
11490;SDS011;5802;52.832;4.758;2023-03-01T03:10:01;1.10;;;0.90;;
11490;SDS011;5802;52.832;4.758;2023-03-01T03:12:28;1.23;;;0.90;;
11490;SDS011;5802;52.832;4.758;2023-03-01T03:14:56;1.23;;;1.13;;
11490;SDS011;5802;52.832;4.758;2023-03-01T03:17:23;2.15;;;0.90;;
11490;SDS011;5802;52.832;4.758;2023-03-01T03:19:49;0.98;;;0.80;;
11490;SDS011;5802;52.832;4.758;2023-03-01T03:22:16;1.08;;;0.88;;
11490;SDS011;5802;52.832;4.758;2023-03-01T03:24:43;1.15;;;0.93;;
11490;SDS011;5802;52.832;4.758;2023-03-01T03:27:09;1.25;;;0.80;;
11490;SDS011;5802;52.832;4.758;2023-03-01T03:29:36;1.13;;;0.90;;
11490;SDS011;5802;52.832;4.758;2023-03-01T03:32:04;0.95;;;0.77;;
11490;SDS011;5802;52.832;4.758;2023-03-01T03:34:32;0.60;;;0.60;;
11490;SDS011;5802;52.832;4.758;2023-03-01T03:36:58;0.80;;;0.80;;
11490;SDS011;5802;52.832;4.758;2023-03-01T03:39:25;0.70;;;0.68;;
11490;SDS011;5802;52.832;4.758;2023-03-01T03:41:52;1.13;;;0.75;;
11490;SDS011;5802;52.832;4.758;2023-03-01T03:44:19;0.80;;;0.70;;
11490;SDS011;5802;52.832;4.758;2023-03-01T03:46:47;0.93;;;0.80;;
11490;SDS011;5802;52.832;4.758;2023-03-01T03:49:15;1.10;;;0.80;;
11490;SDS011;5802;52.832;4.758;2023-03-01T03:51:42;0.77;;;0.63;;
11490;SDS011;5802;52.832;4.758;2023-03-01T03:54:10;0.60;;;0.60;;
11490;SDS011;5802;52.832;4.758;2023-03-01T03:56:37;0.75;;;0.70;;
11490;SDS011;5802;52.832;4.758;2023-03-01T03:59:04;0.85;;;0.57;;
11490;SDS011;5802;52.832;4.758;2023-03-01T04:01:31;1.00;;;0.80;;
11490;SDS011;5802;52.832;4.758;2023-03-01T04:03:57;0.90;;;0.60;;
11490;SDS011;5802;52.832;4.758;2023-03-01T04:06:30;0.60;;;0.60;;
11490;SDS011;5802;52.832;4.758;2023-03-01T04:08:57;0.73;;;0.70;;
11490;SDS011;5802;52.832;4.758;2023-03-01T04:11:25;1.15;;;0.80;;
11490;SDS011;5802;52.832;4.758;2023-03-01T04:13:54;1.13;;;0.80;;
11490;SDS011;5802;52.832;4.758;2023-03-01T04:16:22;0.90;;;0.60;;
11490;SDS011;5802;52.832;4.758;2023-03-01T04:18:49;0.73;;;0.60;;
11490;SDS011;5802;52.832;4.758;2023-03-01T04:21:17;1.15;;;0.73;;
11490;SDS011;5802;52.832;4.758;2023-03-01T04:23:46;0.60;;;0.60;;
11490;SDS011;5802;52.832;4.758;2023-03-01T04:26:13;0.63;;;0.60;;
11490;SDS011;5802;52.832;4.758;2023-03-01T04:28:41;0.60;;;0.60;;
11490;SDS011;5802;52.832;4.758;2023-03-01T04:31:10;1.30;;;0.60;;
11490;SDS011;5802;52.832;4.758;2023-03-01T04:33:40;0.70;;;0.50;;
11490;SDS011;5802;52.832;4.758;2023-03-01T04:36:08;0.70;;;0.70;;
11490;SDS011;5802;52.832;4.758;2023-03-01T04:38:37;2.08;;;0.75;;
11490;SDS011;5802;52.832;4.758;2023-03-01T04:41:06;0.95;;;0.80;;
11490;SDS011;5802;52.832;4.758;2023-03-01T04:43:35;0.82;;;0.60;;
11490;SDS011;5802;52.832;4.758;2023-03-01T04:46:02;1.55;;;0.50;;
11490;SDS011;5802;52.832;4.758;2023-03-01T04:48:31;1.90;;;0.63;;
11490;SDS011;5802;52.832;4.758;2023-03-01T04:50:58;0.57;;;0.57;;
11490;SDS011;5802;52.832;4.758;2023-03-01T04:53:25;1.08;;;0.80;;
11490;SDS011;5802;52.832;4.758;2023-03-01T04:55:53;2.88;;;0.80;;
11490;SDS011;5802;52.832;4.758;2023-03-01T04:58:21;0.70;;;0.60;;
11490;SDS011;5802;52.832;4.758;2023-03-01T05:00:48;0.57;;;0.57;;
11490;SDS011;5802;52.832;4.758;2023-03-01T05:03:15;0.40;;;0.40;;
11490;SDS011;5802;52.832;4.758;2023-03-01T05:05:43;0.75;;;0.60;;
11490;SDS011;5802;52.832;4.758;2023-03-01T05:08:10;1.35;;;0.70;;
11490;SDS011;5802;52.832;4.758;2023-03-01T05:10:43;1.13;;;0.68;;
11490;SDS011;5802;52.832;4.758;2023-03-01T05:13:12;0.60;;;0.60;;
11490;SDS011;5802;52.832;4.758;2023-03-01T05:15:41;0.73;;;0.60;;
11490;SDS011;5802;52.832;4.758;2023-03-01T05:18:08;0.80;;;0.65;;
11490;SDS011;5802;52.832;4.758;2023-03-01T05:20:36;1.10;;;0.60;;
11490;SDS011;5802;52.832;4.758;2023-03-01T05:23:04;0.70;;;0.70;;
11490;SDS011;5802;52.832;4.758;2023-03-01T05:25:31;0.63;;;0.60;;
11490;SDS011;5802;52.832;4.758;2023-03-01T05:27:59;0.70;;;0.70;;
11490;SDS011;5802;52.832;4.758;2023-03-01T05:30:29;0.65;;;0.60;;
11490;SDS011;5802;52.832;4.758;2023-03-01T05:32:57;0.90;;;0.70;;
11490;SDS011;5802;52.832;4.758;2023-03-01T05:35:24;0.70;;;0.50;;
11490;SDS011;5802;52.832;4.758;2023-03-01T05:37:51;0.85;;;0.60;;
11490;SDS011;5802;52.832;4.758;2023-03-01T05:40:19;0.60;;;0.60;;
11490;SDS011;5802;52.832;4.758;2023-03-01T05:42:47;0.60;;;0.60;;
11490;SDS011;5802;52.832;4.758;2023-03-01T05:45:16;1.20;;;0.68;;
11490;SDS011;5802;52.832;4.758;2023-03-01T05:47:44;0.50;;;0.50;;
11490;SDS011;5802;52.832;4.758;2023-03-01T05:50:15;0.60;;;0.60;;
11490;SDS011;5802;52.832;4.758;2023-03-01T05:52:45;0.77;;;0.60;;
11490;SDS011;5802;52.832;4.758;2023-03-01T05:55:13;1.05;;;0.68;;
11490;SDS011;5802;52.832;4.758;2023-03-01T05:57:40;0.60;;;0.52;;
11490;SDS011;5802;52.832;4.758;2023-03-01T06:00:08;0.68;;;0.68;;
11490;SDS011;5802;52.832;4.758;2023-03-01T06:02:36;0.60;;;0.60;;
11490;SDS011;5802;52.832;4.758;2023-03-01T06:05:03;0.65;;;0.60;;
11490;SDS011;5802;52.832;4.758;2023-03-01T06:07:32;0.50;;;0.50;;
11490;SDS011;5802;52.832;4.758;2023-03-01T06:10:00;0.47;;;0.45;;
11490;SDS011;5802;52.832;4.758;2023-03-01T06:12:29;0.88;;;0.70;;
11490;SDS011;5802;52.832;4.758;2023-03-01T06:14:56;1.83;;;0.52;;
11490;SDS011;5802;52.832;4.758;2023-03-01T06:17:23;0.50;;;0.50;;
11490;SDS011;5802;52.832;4.758;2023-03-01T06:19:50;2.78;;;0.90;;
11490;SDS011;5802;52.832;4.758;2023-03-01T06:22:16;1.48;;;0.82;;
11490;SDS011;5802;52.832;4.758;2023-03-01T06:24:44;2.30;;;0.85;;
11490;SDS011;5802;52.832;4.758;2023-03-01T06:27:11;2.53;;;0.75;;
11490;SDS011;5802;52.832;4.758;2023-03-01T06:29:38;1.55;;;0.77;;
11490;SDS011;5802;52.832;4.758;2023-03-01T06:32:04;1.00;;;0.80;;
11490;SDS011;5802;52.832;4.758;2023-03-01T06:34:33;1.02;;;0.63;;
11490;SDS011;5802;52.832;4.758;2023-03-01T06:37:00;1.10;;;0.77;;
11490;SDS011;5802;52.832;4.758;2023-03-01T06:39:30;1.40;;;0.73;;
11490;SDS011;5802;52.832;4.758;2023-03-01T06:41:58;2.70;;;0.98;;
11490;SDS011;5802;52.832;4.758;2023-03-01T06:44:25;1.27;;;0.75;;
11490;SDS011;5802;52.832;4.758;2023-03-01T06:46:52;1.38;;;0.85;;
11490;SDS011;5802;52.832;4.758;2023-03-01T06:49:19;1.13;;;0.80;;
11490;SDS011;5802;52.832;4.758;2023-03-01T06:51:46;2.05;;;0.80;;
11490;SDS011;5802;52.832;4.758;2023-03-01T06:54:13;0.88;;;0.73;;
11490;SDS011;5802;52.832;4.758;2023-03-01T06:56:40;0.90;;;0.77;;
11490;SDS011;5802;52.832;4.758;2023-03-01T06:59:08;2.30;;;0.80;;
11490;SDS011;5802;52.832;4.758;2023-03-01T07:01:34;0.85;;;0.80;;
11490;SDS011;5802;52.832;4.758;2023-03-01T07:04:01;0.77;;;0.68;;
11490;SDS011;5802;52.832;4.758;2023-03-01T07:06:28;2.40;;;0.88;;
11490;SDS011;5802;52.832;4.758;2023-03-01T07:08:54;1.83;;;1.00;;
11490;SDS011;5802;52.832;4.758;2023-03-01T07:11:21;4.63;;;1.02;;
11490;SDS011;5802;52.832;4.758;2023-03-01T07:13:48;0.70;;;0.68;;
11490;SDS011;5802;52.832;4.758;2023-03-01T07:16:16;2.30;;;1.00;;
11490;SDS011;5802;52.832;4.758;2023-03-01T07:18:45;3.50;;;1.00;;
11490;SDS011;5802;52.832;4.758;2023-03-01T07:21:12;1.05;;;0.85;;
11490;SDS011;5802;52.832;4.758;2023-03-01T07:23:41;0.80;;;0.80;;
11490;SDS011;5802;52.832;4.758;2023-03-01T07:26:08;1.77;;;1.08;;
11490;SDS011;5802;52.832;4.758;2023-03-01T07:28:35;3.13;;;0.80;;
11490;SDS011;5802;52.832;4.758;2023-03-01T07:31:04;1.08;;;0.85;;
11490;SDS011;5802;52.832;4.758;2023-03-01T07:33:32;1.38;;;0.95;;
11490;SDS011;5802;52.832;4.758;2023-03-01T07:35:59;1.10;;;0.73;;
11490;SDS011;5802;52.832;4.758;2023-03-01T07:38:27;1.50;;;0.90;;
11490;SDS011;5802;52.832;4.758;2023-03-01T07:40:57;1.40;;;1.00;;
11490;SDS011;5802;52.832;4.758;2023-03-01T07:43:25;1.15;;;1.00;;
11490;SDS011;5802;52.832;4.758;2023-03-01T07:45:51;1.10;;;1.00;;
11490;SDS011;5802;52.832;4.758;2023-03-01T07:48:18;1.88;;;0.90;;
11490;SDS011;5802;52.832;4.758;2023-03-01T07:50:46;1.92;;;1.00;;
11490;SDS011;5802;52.832;4.758;2023-03-01T07:53:13;1.85;;;1.20;;
11490;SDS011;5802;52.832;4.758;2023-03-01T07:55:40;3.10;;;1.10;;
11490;SDS011;5802;52.832;4.758;2023-03-01T07:58:06;1.55;;;1.08;;
11490;SDS011;5802;52.832;4.758;2023-03-01T08:00:33;1.30;;;0.90;;
11490;SDS011;5802;52.832;4.758;2023-03-01T08:03:00;3.00;;;1.00;;
11490;SDS011;5802;52.832;4.758;2023-03-01T08:05:27;1.38;;;1.00;;
11490;SDS011;5802;52.832;4.758;2023-03-01T08:07:55;1.02;;;0.85;;
11490;SDS011;5802;52.832;4.758;2023-03-01T08:10:22;5.43;;;1.00;;
11490;SDS011;5802;52.832;4.758;2023-03-01T08:12:50;2.88;;;1.20;;
11490;SDS011;5802;52.832;4.758;2023-03-01T08:15:19;1.92;;;0.98;;
11490;SDS011;5802;52.832;4.758;2023-03-01T08:17:48;1.48;;;1.10;;
11490;SDS011;5802;52.832;4.758;2023-03-01T08:20:15;1.20;;;0.90;;
11490;SDS011;5802;52.832;4.758;2023-03-01T08:22:42;1.50;;;1.10;;
11490;SDS011;5802;52.832;4.758;2023-03-01T08:25:10;2.17;;;1.05;;
11490;SDS011;5802;52.832;4.758;2023-03-01T08:27:37;1.48;;;1.25;;
11490;SDS011;5802;52.832;4.758;2023-03-01T08:30:04;2.50;;;1.02;;
11490;SDS011;5802;52.832;4.758;2023-03-01T08:32:34;0.95;;;0.80;;
11490;SDS011;5802;52.832;4.758;2023-03-01T08:35:02;0.93;;;0.80;;
11490;SDS011;5802;52.832;4.758;2023-03-01T08:37:29;0.68;;;0.68;;
11490;SDS011;5802;52.832;4.758;2023-03-01T08:39:59;0.80;;;0.80;;
11490;SDS011;5802;52.832;4.758;2023-03-01T08:42:27;1.60;;;0.85;;
11490;SDS011;5802;52.832;4.758;2023-03-01T08:44:54;1.38;;;1.00;;
11490;SDS011;5802;52.832;4.758;2023-03-01T08:47:21;0.85;;;0.85;;
11490;SDS011;5802;52.832;4.758;2023-03-01T08:49:48;1.60;;;0.85;;
11490;SDS011;5802;52.832;4.758;2023-03-01T08:52:15;1.08;;;0.80;;
11490;SDS011;5802;52.832;4.758;2023-03-01T08:54:42;2.25;;;1.02;;
11490;SDS011;5802;52.832;4.758;2023-03-01T08:57:09;1.92;;;0.90;;
11490;SDS011;5802;52.832;4.758;2023-03-01T08:59:37;1.10;;;0.95;;
11490;SDS011;5802;52.832;4.758;2023-03-01T09:02:03;1.30;;;1.00;;
11490;SDS011;5802;52.832;4.758;2023-03-01T09:04:30;1.73;;;0.90;;
11490;SDS011;5802;52.832;4.758;2023-03-01T09:06:58;0.90;;;0.80;;
11490;SDS011;5802;52.832;4.758;2023-03-01T09:09:24;1.10;;;0.80;;
11490;SDS011;5802;52.832;4.758;2023-03-01T09:11:51;1.00;;;0.90;;
11490;SDS011;5802;52.832;4.758;2023-03-01T09:14:18;1.30;;;0.90;;
11490;SDS011;5802;52.832;4.758;2023-03-01T09:16:46;1.27;;;0.90;;
11490;SDS011;5802;52.832;4.758;2023-03-01T09:19:13;1.15;;;0.90;;
11490;SDS011;5802;52.832;4.758;2023-03-01T09:21:41;2.63;;;0.93;;
11490;SDS011;5802;52.832;4.758;2023-03-01T09:24:18;1.52;;;0.70;;
11490;SDS011;5802;52.832;4.758;2023-03-01T09:26:45;1.83;;;1.00;;
11490;SDS011;5802;52.832;4.758;2023-03-01T09:29:12;1.20;;;0.73;;
11490;SDS011;5802;52.832;4.758;2023-03-01T09:31:40;1.10;;;0.82;;
11490;SDS011;5802;52.832;4.758;2023-03-01T09:34:09;1.20;;;0.88;;
11490;SDS011;5802;52.832;4.758;2023-03-01T09:36:36;0.93;;;0.80;;
11490;SDS011;5802;52.832;4.758;2023-03-01T09:39:03;2.17;;;0.82;;
11490;SDS011;5802;52.832;4.758;2023-03-01T09:41:36;0.85;;;0.80;;
11490;SDS011;5802;52.832;4.758;2023-03-01T09:44:10;0.70;;;0.70;;
11490;SDS011;5802;52.832;4.758;2023-03-01T09:46:44;2.58;;;0.70;;
11490;SDS011;5802;52.832;4.758;2023-03-01T09:49:14;0.63;;;0.63;;
11490;SDS011;5802;52.832;4.758;2023-03-01T09:51:55;1.90;;;0.85;;
11490;SDS011;5802;52.832;4.758;2023-03-01T09:54:24;0.77;;;0.75;;
11490;SDS011;5802;52.832;4.758;2023-03-01T09:59:44;0.68;;;0.57;;
11490;SDS011;5802;52.832;4.758;2023-03-01T10:02:21;0.75;;;0.75;;
11490;SDS011;5802;52.832;4.758;2023-03-01T10:04:54;0.93;;;0.77;;
11490;SDS011;5802;52.832;4.758;2023-03-01T10:07:27;1.42;;;0.90;;
11490;SDS011;5802;52.832;4.758;2023-03-01T10:10:04;0.98;;;0.80;;
11490;SDS011;5802;52.832;4.758;2023-03-01T10:12:33;2.50;;;0.73;;
11490;SDS011;5802;52.832;4.758;2023-03-01T10:15:03;1.13;;;0.75;;
11490;SDS011;5802;52.832;4.758;2023-03-01T10:17:33;1.88;;;0.80;;
11490;SDS011;5802;52.832;4.758;2023-03-01T10:20:14;3.88;;;0.80;;
11490;SDS011;5802;52.832;4.758;2023-03-01T10:22:44;3.28;;;0.82;;
11490;SDS011;5802;52.832;4.758;2023-03-01T10:25:15;1.83;;;0.82;;
11490;SDS011;5802;52.832;4.758;2023-03-01T10:27:51;2.08;;;0.80;;
11490;SDS011;5802;52.832;4.758;2023-03-01T10:30:20;1.00;;;0.73;;
11490;SDS011;5802;52.832;4.758;2023-03-01T10:32:49;2.10;;;0.65;;
11490;SDS011;5802;52.832;4.758;2023-03-01T10:35:20;1.38;;;0.90;;
11490;SDS011;5802;52.832;4.758;2023-03-01T10:38:02;0.68;;;0.60;;
11490;SDS011;5802;52.832;4.758;2023-03-01T10:40:31;2.97;;;1.00;;
11490;SDS011;5802;52.832;4.758;2023-03-01T10:43:00;1.88;;;0.60;;
11490;SDS011;5802;52.832;4.758;2023-03-01T10:45:33;0.95;;;0.70;;
11490;SDS011;5802;52.832;4.758;2023-03-01T10:48:05;3.50;;;0.80;;
11490;SDS011;5802;52.832;4.758;2023-03-01T10:50:39;1.33;;;1.02;;
11490;SDS011;5802;52.832;4.758;2023-03-01T10:53:16;1.20;;;0.88;;
11490;SDS011;5802;52.832;4.758;2023-03-01T10:55:55;1.48;;;0.88;;
11490;SDS011;5802;52.832;4.758;2023-03-01T10:58:28;3.28;;;1.00;;
11490;SDS011;5802;52.832;4.758;2023-03-01T11:00:57;2.97;;;1.20;;
11490;SDS011;5802;52.832;4.758;2023-03-01T11:03:26;2.70;;;0.95;;
11490;SDS011;5802;52.832;4.758;2023-03-01T11:05:57;4.10;;;1.15;;
11490;SDS011;5802;52.832;4.758;2023-03-01T11:08:30;5.35;;;1.10;;
11490;SDS011;5802;52.832;4.758;2023-03-01T11:11:16;2.65;;;1.10;;
11490;SDS011;5802;52.832;4.758;2023-03-01T11:13:51;7.35;;;1.23;;
11490;SDS011;5802;52.832;4.758;2023-03-01T11:16:24;5.35;;;1.23;;
11490;SDS011;5802;52.832;4.758;2023-03-01T11:18:57;3.10;;;1.25;;
11490;SDS011;5802;52.832;4.758;2023-03-01T11:21:28;4.07;;;1.00;;
11490;SDS011;5802;52.832;4.758;2023-03-01T11:23:57;6.10;;;1.05;;
11490;SDS011;5802;52.832;4.758;2023-03-01T11:26:27;1.65;;;0.82;;
11490;SDS011;5802;52.832;4.758;2023-03-01T11:28:57;3.08;;;1.10;;
11490;SDS011;5802;52.832;4.758;2023-03-01T11:31:29;3.92;;;1.00;;
11490;SDS011;5802;52.832;4.758;2023-03-01T11:33:58;1.52;;;0.98;;
11490;SDS011;5802;52.832;4.758;2023-03-01T11:36:32;2.60;;;0.85;;
11490;SDS011;5802;52.832;4.758;2023-03-01T11:39:03;1.50;;;1.00;;
11490;SDS011;5802;52.832;4.758;2023-03-01T11:41:38;4.25;;;1.30;;
11490;SDS011;5802;52.832;4.758;2023-03-01T11:44:10;1.83;;;0.93;;
11490;SDS011;5802;52.832;4.758;2023-03-01T11:46:51;2.97;;;1.05;;
11490;SDS011;5802;52.832;4.758;2023-03-01T11:49:40;3.95;;;1.10;;
11490;SDS011;5802;52.832;4.758;2023-03-01T11:52:24;6.25;;;1.25;;
11490;SDS011;5802;52.832;4.758;2023-03-01T11:55:04;12.05;;;1.50;;
11490;SDS011;5802;52.832;4.758;2023-03-01T11:57:47;14.30;;;1.35;;
11490;SDS011;5802;52.832;4.758;2023-03-01T12:00:30;6.93;;;1.58;;
11490;SDS011;5802;52.832;4.758;2023-03-01T12:03:17;11.82;;;1.63;;
11490;SDS011;5802;52.832;4.758;2023-03-01T12:05:58;9.90;;;1.92;;
11490;SDS011;5802;52.832;4.758;2023-03-01T12:08:45;13.23;;;1.63;;
11490;SDS011;5802;52.832;4.758;2023-03-01T12:11:23;14.20;;;1.85;;
11490;SDS011;5802;52.832;4.758;2023-03-01T12:14:04;10.57;;;1.55;;
11490;SDS011;5802;52.832;4.758;2023-03-01T12:19:44;9.45;;;1.65;;
11490;SDS011;5802;52.832;4.758;2023-03-01T12:22:37;7.00;;;1.50;;
11490;SDS011;5802;52.832;4.758;2023-03-01T12:25:17;12.98;;;1.45;;
11490;SDS011;5802;52.832;4.758;2023-03-01T12:27:56;9.13;;;1.33;;
11490;SDS011;5802;52.832;4.758;2023-03-01T12:30:42;8.93;;;1.35;;
11490;SDS011;5802;52.832;4.758;2023-03-01T12:33:23;10.75;;;1.73;;
11490;SDS011;5802;52.832;4.758;2023-03-01T12:36:07;4.22;;;1.25;;
11490;SDS011;5802;52.832;4.758;2023-03-01T12:38:45;12.77;;;1.67;;
11490;SDS011;5802;52.832;4.758;2023-03-01T12:41:29;7.28;;;1.35;;
11490;SDS011;5802;52.832;4.758;2023-03-01T12:44:22;5.20;;;1.17;;
11490;SDS011;5802;52.832;4.758;2023-03-01T12:47:00;6.80;;;1.17;;
11490;SDS011;5802;52.832;4.758;2023-03-01T12:49:37;5.85;;;1.20;;
11490;SDS011;5802;52.832;4.758;2023-03-01T12:52:09;8.65;;;0.93;;
11490;SDS011;5802;52.832;4.758;2023-03-01T12:54:40;5.32;;;1.00;;
11490;SDS011;5802;52.832;4.758;2023-03-01T12:57:11;3.83;;;1.25;;
11490;SDS011;5802;52.832;4.758;2023-03-01T12:59:42;6.35;;;1.20;;
11490;SDS011;5802;52.832;4.758;2023-03-01T13:02:19;2.38;;;1.27;;
11490;SDS011;5802;52.832;4.758;2023-03-01T13:04:54;5.22;;;1.00;;
11490;SDS011;5802;52.832;4.758;2023-03-01T13:07:34;4.63;;;1.40;;
11490;SDS011;5802;52.832;4.758;2023-03-01T13:10:11;3.42;;;0.98;;
11490;SDS011;5802;52.832;4.758;2023-03-01T13:12:53;4.93;;;1.40;;
11490;SDS011;5802;52.832;4.758;2023-03-01T13:15:29;2.42;;;1.27;;
11490;SDS011;5802;52.832;4.758;2023-03-01T13:17:58;4.97;;;1.25;;
11490;SDS011;5802;52.832;4.758;2023-03-01T13:20:27;2.85;;;1.02;;
11490;SDS011;5802;52.832;4.758;2023-03-01T13:23:03;7.25;;;1.45;;
11490;SDS011;5802;52.832;4.758;2023-03-01T13:25:35;6.38;;;1.40;;
11490;SDS011;5802;52.832;4.758;2023-03-01T13:28:41;4.45;;;1.50;;
11490;SDS011;5802;52.832;4.758;2023-03-01T13:40:04;7.57;;;1.52;;
11490;SDS011;5802;52.832;4.758;2023-03-01T13:42:47;2.50;;;1.00;;
11490;SDS011;5802;52.832;4.758;2023-03-01T13:45:18;3.13;;;1.13;;
11490;SDS011;5802;52.832;4.758;2023-03-01T13:47:49;2.60;;;1.02;;
11490;SDS011;5802;52.832;4.758;2023-03-01T13:50:20;1.67;;;1.17;;
11490;SDS011;5802;52.832;4.758;2023-03-01T13:52:52;2.47;;;1.33;;
11490;SDS011;5802;52.832;4.758;2023-03-01T13:55:23;1.77;;;1.23;;
11490;SDS011;5802;52.832;4.758;2023-03-01T13:57:53;6.70;;;1.38;;
11490;SDS011;5802;52.832;4.758;2023-03-01T14:00:32;3.30;;;1.20;;
11490;SDS011;5802;52.832;4.758;2023-03-01T14:03:05;7.20;;;1.75;;
11490;SDS011;5802;52.832;4.758;2023-03-01T14:05:37;4.13;;;1.60;;
11490;SDS011;5802;52.832;4.758;2023-03-01T14:08:04;4.70;;;1.45;;
11490;SDS011;5802;52.832;4.758;2023-03-01T14:10:44;3.88;;;1.40;;
11490;SDS011;5802;52.832;4.758;2023-03-01T14:13:23;5.15;;;1.55;;
11490;SDS011;5802;52.832;4.758;2023-03-01T14:16:05;11.43;;;1.60;;
11490;SDS011;5802;52.832;4.758;2023-03-01T14:18:45;4.55;;;1.73;;
11490;SDS011;5802;52.832;4.758;2023-03-01T14:21:19;5.20;;;1.73;;
11490;SDS011;5802;52.832;4.758;2023-03-01T14:23:47;5.85;;;1.98;;
11490;SDS011;5802;52.832;4.758;2023-03-01T14:26:14;10.55;;;2.70;;
11490;SDS011;5802;52.832;4.758;2023-03-01T14:28:46;9.98;;;2.28;;
11490;SDS011;5802;52.832;4.758;2023-03-01T14:31:36;4.15;;;2.00;;
11490;SDS011;5802;52.832;4.758;2023-03-01T14:34:05;7.93;;;1.75;;
11490;SDS011;5802;52.832;4.758;2023-03-01T14:36:32;7.07;;;2.08;;
11490;SDS011;5802;52.832;4.758;2023-03-01T14:39:00;6.55;;;1.70;;
11490;SDS011;5802;52.832;4.758;2023-03-01T14:41:31;3.72;;;1.52;;
11490;SDS011;5802;52.832;4.758;2023-03-01T14:44:00;5.78;;;1.40;;
11490;SDS011;5802;52.832;4.758;2023-03-01T14:46:32;3.60;;;1.55;;
11490;SDS011;5802;52.832;4.758;2023-03-01T14:49:03;5.30;;;1.50;;
11490;SDS011;5802;52.832;4.758;2023-03-01T14:51:35;5.13;;;1.30;;
11490;SDS011;5802;52.832;4.758;2023-03-01T14:54:03;1.77;;;1.23;;
11490;SDS011;5802;52.832;4.758;2023-03-01T14:56:43;5.03;;;1.63;;
11490;SDS011;5802;52.832;4.758;2023-03-01T14:59:11;5.95;;;1.80;;
11490;SDS011;5802;52.832;4.758;2023-03-01T15:01:39;3.13;;;1.35;;
11490;SDS011;5802;52.832;4.758;2023-03-01T15:04:07;2.08;;;1.38;;
11490;SDS011;5802;52.832;4.758;2023-03-01T15:06:37;4.90;;;1.35;;
11490;SDS011;5802;52.832;4.758;2023-03-01T15:09:04;4.10;;;1.45;;
11490;SDS011;5802;52.832;4.758;2023-03-01T15:11:33;2.30;;;1.40;;
11490;SDS011;5802;52.832;4.758;2023-03-01T15:14:01;1.40;;;1.30;;
11490;SDS011;5802;52.832;4.758;2023-03-01T15:16:53;16.02;;;1.75;;
11490;SDS011;5802;52.832;4.758;2023-03-01T15:19:21;3.63;;;1.40;;
11490;SDS011;5802;52.832;4.758;2023-03-01T15:21:52;4.18;;;1.50;;
11490;SDS011;5802;52.832;4.758;2023-03-01T15:24:20;5.60;;;1.55;;
11490;SDS011;5802;52.832;4.758;2023-03-01T15:26:50;4.78;;;1.63;;
11490;SDS011;5802;52.832;4.758;2023-03-01T15:29:21;4.22;;;1.50;;
11490;SDS011;5802;52.832;4.758;2023-03-01T15:31:56;4.93;;;1.60;;
11490;SDS011;5802;52.832;4.758;2023-03-01T15:34:25;3.33;;;2.00;;